createdAt,value
2019-03-10T00:00:36.054Z,11.00
2019-03-10T00:03:05.739Z,11.00
2019-03-10T00:05:35.509Z,11.00
2019-03-10T00:08:07.709Z,11.10
2019-03-10T00:10:36.961Z,11.10
2019-03-10T00:13:06.536Z,11.10
2019-03-10T00:15:36.453Z,11.10
2019-03-10T00:18:06.404Z,11.00
2019-03-10T00:20:36.056Z,11.00
2019-03-10T00:23:05.748Z,11.00
2019-03-10T00:25:35.653Z,11.00
2019-03-10T00:28:05.472Z,11.00
2019-03-10T00:30:34.998Z,11.00
2019-03-10T00:33:04.688Z,11.00
2019-03-10T00:35:34.319Z,11.00
2019-03-10T00:38:04.001Z,11.00
2019-03-10T00:41:15.289Z,10.90
2019-03-10T00:44:27.794Z,10.90
2019-03-10T00:47:35.809Z,10.90
2019-03-10T00:50:52.518Z,10.90
2019-03-10T00:53:22.128Z,10.90
2019-03-10T00:55:51.819Z,10.90
2019-03-10T00:58:21.707Z,10.90
2019-03-10T01:00:51.416Z,10.90
2019-03-10T01:03:21.351Z,10.90
2019-03-10T01:05:51.039Z,10.80
2019-03-10T01:08:20.660Z,10.90
2019-03-10T01:10:50.723Z,10.80
2019-03-10T01:13:20.321Z,10.80
2019-03-10T01:15:50.532Z,10.70
2019-03-10T01:18:21.163Z,10.80
2019-03-10T01:20:52.328Z,10.80
2019-03-10T01:23:21.935Z,10.70
2019-03-10T01:25:51.507Z,10.70
2019-03-10T01:28:21.207Z,10.70
2019-03-10T01:31:00.635Z,10.60
2019-03-10T01:34:11.698Z,10.60
2019-03-10T01:36:41.569Z,10.60
2019-03-10T01:39:11.353Z,10.60
2019-03-10T01:41:41.007Z,10.60
2019-03-10T01:44:10.727Z,10.60
2019-03-10T01:46:40.595Z,10.50
2019-03-10T01:49:10.865Z,10.50
2019-03-10T01:51:40.466Z,10.40
2019-03-10T01:54:10.260Z,10.30
2019-03-10T01:56:39.882Z,10.30
2019-03-10T01:59:09.785Z,10.20
2019-03-10T02:01:39.574Z,10.20
2019-03-10T02:04:09.356Z,10.10
2019-03-10T02:06:38.897Z,10.00
2019-03-10T02:09:08.566Z,10.00
2019-03-10T02:11:38.381Z,9.90
2019-03-10T02:14:08.036Z,9.90
2019-03-10T02:16:37.653Z,9.80
2019-03-10T02:19:07.380Z,9.80
2019-03-10T02:21:37.179Z,9.70
2019-03-10T02:24:07.116Z,9.70
2019-03-10T02:26:37.084Z,9.70
2019-03-10T02:29:06.696Z,9.70
2019-03-10T02:31:36.354Z,9.70
2019-03-10T02:34:06.045Z,9.70
2019-03-10T02:36:35.806Z,9.60
2019-03-10T02:39:06.402Z,9.70
2019-03-10T02:41:36.290Z,9.70
2019-03-10T02:44:05.984Z,9.80
2019-03-10T02:46:35.640Z,9.80
2019-03-10T02:49:05.289Z,9.80
2019-03-10T02:51:35.238Z,9.90
2019-03-10T02:54:05.125Z,9.90
2019-03-10T02:56:34.779Z,10.00
2019-03-10T02:59:04.445Z,10.00
2019-03-10T03:01:34.263Z,10.00
2019-03-10T03:04:03.840Z,9.90
2019-03-10T03:06:33.677Z,10.00
2019-03-10T03:09:03.229Z,10.00
2019-03-10T03:11:33.254Z,10.10
2019-03-10T03:14:03.067Z,10.10
2019-03-10T03:16:32.756Z,10.10
2019-03-10T03:19:02.646Z,10.00
2019-03-10T03:21:43.060Z,10.00
2019-03-10T03:24:03.618Z,9.90
2019-03-10T03:26:33.263Z,9.90
2019-03-10T03:29:02.882Z,9.90
2019-03-10T03:31:32.568Z,9.80
2019-03-10T03:34:02.222Z,9.90
2019-03-10T03:36:36.592Z,9.90
2019-03-10T03:39:38.851Z,9.90
2019-03-10T03:42:08.569Z,9.80
2019-03-10T03:44:38.348Z,9.90
2019-03-10T03:47:07.917Z,10.00
2019-03-10T03:49:37.784Z,10.10
2019-03-10T03:52:07.309Z,10.10
2019-03-10T03:54:37.061Z,10.10
2019-03-10T03:57:06.626Z,10.10
2019-03-10T03:59:36.402Z,10.10
2019-03-10T04:02:31.053Z,10.00
2019-03-10T04:05:00.658Z,10.00
2019-03-10T04:07:30.424Z,10.00
2019-03-10T04:10:00.468Z,9.90
2019-03-10T04:12:30.099Z,9.90
2019-03-10T04:15:00.231Z,9.90
2019-03-10T04:17:30.112Z,10.00
2019-03-10T04:19:59.827Z,9.90
2019-03-10T04:22:29.618Z,10.00
2019-03-10T04:24:59.576Z,10.00
2019-03-10T04:27:29.290Z,10.00
2019-03-10T04:29:59.032Z,10.00
2019-03-10T04:32:28.775Z,10.00
2019-03-10T04:34:58.585Z,10.00
2019-03-10T04:37:28.255Z,10.00
2019-03-10T04:39:57.894Z,10.00
2019-03-10T04:42:27.473Z,10.00
2019-03-10T04:44:57.322Z,10.10
2019-03-10T04:47:27.136Z,10.00
2019-03-10T04:49:56.845Z,10.10
2019-03-10T04:52:26.752Z,9.90
2019-03-10T04:55:13.944Z,10.00
2019-03-10T04:57:58.740Z,9.80
2019-03-10T05:00:29.189Z,9.80
2019-03-10T05:02:58.949Z,9.60
2019-03-10T05:05:28.737Z,9.50
2019-03-10T05:07:58.326Z,9.30
2019-03-10T05:10:28.211Z,9.20
2019-03-10T05:12:57.934Z,9.00
2019-03-10T05:15:27.639Z,8.90
2019-03-10T05:17:57.354Z,8.80
2019-03-10T05:20:27.083Z,8.60
2019-03-10T05:23:43.587Z,8.60
2019-03-10T05:26:14.045Z,8.50
2019-03-10T05:28:45.539Z,8.40
2019-03-10T05:31:15.300Z,8.30
2019-03-10T05:33:44.995Z,8.20
2019-03-10T05:36:14.749Z,8.10
2019-03-10T05:38:44.406Z,8.00
2019-03-10T05:41:14.198Z,8.00
2019-03-10T05:43:43.906Z,7.90
2019-03-10T05:46:13.545Z,7.90
2019-03-10T05:48:43.159Z,7.90
2019-03-10T05:51:12.810Z,7.90
2019-03-10T05:53:42.545Z,7.80
2019-03-10T05:56:12.278Z,7.90
2019-03-10T05:58:41.822Z,7.80
2019-03-10T06:01:11.561Z,7.80
2019-03-10T06:03:41.281Z,7.70
2019-03-10T06:06:10.862Z,7.70
2019-03-10T06:08:40.587Z,7.70
2019-03-10T06:11:10.347Z,7.80
2019-03-10T06:13:40.022Z,7.80
2019-03-10T06:16:09.774Z,7.80
2019-03-10T06:18:39.312Z,7.80
2019-03-10T06:21:09.303Z,7.80
2019-03-10T06:23:39.097Z,7.70
2019-03-10T06:26:08.904Z,7.70
2019-03-10T06:28:38.620Z,7.90
2019-03-10T06:31:08.204Z,7.90
2019-03-10T06:33:37.815Z,7.80
2019-03-10T06:36:07.552Z,7.80
2019-03-10T06:38:37.442Z,7.80
2019-03-10T06:41:06.960Z,7.70
2019-03-10T06:43:36.620Z,7.60
2019-03-10T06:46:06.396Z,7.60
2019-03-10T06:48:36.276Z,7.60
2019-03-10T06:51:05.813Z,7.60
2019-03-10T06:53:35.453Z,7.50
2019-03-10T06:56:05.196Z,7.50
2019-03-10T06:58:35.109Z,7.50
2019-03-10T07:01:04.689Z,7.40
2019-03-10T07:03:34.357Z,7.40
2019-03-10T07:06:04.150Z,7.40
2019-03-10T07:08:33.761Z,7.30
2019-03-10T07:11:03.323Z,7.30
2019-03-10T07:13:33.109Z,7.30
2019-03-10T07:16:02.780Z,7.30
2019-03-10T07:18:32.490Z,7.30
2019-03-10T07:21:02.313Z,7.30
2019-03-10T07:23:32.022Z,7.30
2019-03-10T07:26:08.457Z,7.30
2019-03-10T07:28:57.330Z,7.40
2019-03-10T07:31:37.123Z,7.30
2019-03-10T07:34:25.804Z,7.40
2019-03-10T07:37:19.637Z,7.40
2019-03-10T07:40:06.992Z,7.30
2019-03-10T07:43:01.730Z,7.40
2019-03-10T07:45:47.544Z,7.40
2019-03-10T07:48:39.924Z,7.50
2019-03-10T07:51:34.322Z,7.40
2019-03-10T07:54:25.295Z,7.50
2019-03-10T07:57:26.247Z,7.40
2019-03-10T08:00:14.255Z,7.50
2019-03-10T08:03:01.749Z,7.50
2019-03-10T08:05:56.488Z,7.50
2019-03-10T08:08:32.095Z,7.50
2019-03-10T08:11:20.625Z,7.50
2019-03-10T08:14:12.277Z,7.60
2019-03-10T08:17:00.720Z,7.60
2019-03-10T08:19:58.514Z,7.70
2019-03-10T08:22:45.955Z,7.60
2019-03-10T08:25:21.743Z,7.70
2019-03-10T08:28:17.246Z,7.70
2019-03-10T08:31:21.064Z,7.60
2019-03-10T08:34:24.990Z,7.60
2019-03-10T08:37:09.827Z,7.60
2019-03-10T08:39:55.955Z,7.50
2019-03-10T08:42:50.752Z,7.60
2019-03-10T08:45:27.732Z,7.60
2019-03-10T08:48:22.721Z,7.50
2019-03-10T08:51:11.292Z,7.60
2019-03-10T08:53:54.704Z,7.60
2019-03-10T08:56:32.204Z,7.70
2019-03-10T08:59:15.411Z,7.70
2019-03-10T09:02:10.103Z,7.70
2019-03-10T09:04:57.567Z,7.70
2019-03-10T09:07:47.450Z,7.80
2019-03-10T09:10:38.999Z,7.80
2019-03-10T09:13:24.581Z,7.80
2019-03-10T09:16:11.041Z,8.00
2019-03-10T09:19:30.444Z,8.00
2019-03-10T09:22:31.214Z,8.00
2019-03-10T09:25:25.852Z,8.00
2019-03-10T09:28:33.045Z,8.10
2019-03-10T09:31:33.757Z,8.10
2019-03-10T09:34:22.339Z,8.10
2019-03-10T09:37:09.761Z,8.10
2019-03-10T09:40:00.109Z,8.10
2019-03-10T09:43:00.778Z,8.10
2019-03-10T09:45:40.333Z,8.10
2019-03-10T09:48:18.955Z,8.10
2019-03-10T09:51:16.718Z,8.10
2019-03-10T09:54:04.174Z,8.20
2019-03-10T09:56:40.088Z,8.20
2019-03-10T09:59:16.303Z,8.20
2019-03-10T10:02:20.200Z,8.30
2019-03-10T10:05:08.888Z,8.40
2019-03-10T10:07:55.746Z,8.50
2019-03-10T10:10:40.311Z,8.60
2019-03-10T10:13:19.024Z,8.80
2019-03-10T10:16:26.225Z,9.00
2019-03-10T10:19:10.318Z,9.20
2019-03-10T10:22:05.139Z,9.40
2019-03-10T10:25:06.261Z,9.60
2019-03-10T10:27:49.740Z,9.70
2019-03-10T10:30:53.712Z,9.90
2019-03-10T10:33:42.938Z,9.90
2019-03-10T10:36:26.577Z,10.00
2019-03-10T10:39:24.433Z,10.10
2019-03-10T10:42:15.687Z,10.20
2019-03-10T10:44:59.696Z,10.30
2019-03-10T10:47:54.436Z,10.40
2019-03-10T10:50:41.644Z,10.50
2019-03-10T10:53:21.698Z,10.60
2019-03-10T10:56:13.102Z,10.70
2019-03-10T10:59:04.582Z,10.80
2019-03-10T11:02:01.364Z,10.80
2019-03-10T11:04:52.913Z,10.90
2019-03-10T11:07:33.138Z,10.90
2019-03-10T11:10:36.921Z,10.90
2019-03-10T11:13:44.050Z,10.80
2019-03-10T11:16:19.582Z,10.80
2019-03-10T11:19:07.005Z,10.80
2019-03-10T11:21:55.729Z,10.80
2019-03-10T11:24:33.472Z,10.80
2019-03-10T11:27:11.849Z,10.80
2019-03-10T11:29:57.160Z,10.70
2019-03-10T11:32:43.940Z,10.80
2019-03-10T11:35:28.939Z,10.80
2019-03-10T11:38:11.779Z,10.80
2019-03-10T11:41:00.942Z,10.80
2019-03-10T11:43:38.725Z,10.80
2019-03-10T11:46:43.760Z,10.80
2019-03-10T11:49:25.856Z,10.70
2019-03-10T11:52:20.145Z,10.70
2019-03-10T11:55:14.926Z,10.70
2019-03-10T11:58:09.674Z,10.70
2019-03-10T12:00:58.554Z,10.80
2019-03-10T12:03:34.672Z,10.90
2019-03-10T12:06:19.142Z,10.80
2019-03-10T12:08:59.268Z,10.90
2019-03-10T12:11:29.035Z,10.90
2019-03-10T12:13:58.857Z,10.80
2019-03-10T12:16:31.103Z,10.90
2019-03-10T12:19:00.053Z,10.90
2019-03-10T12:21:29.961Z,10.90
2019-03-10T12:23:59.829Z,10.90
2019-03-10T12:26:29.501Z,11.00
2019-03-10T12:28:59.348Z,11.00
2019-03-10T12:31:29.201Z,11.00
2019-03-10T12:33:58.908Z,11.10
2019-03-10T12:36:28.683Z,11.10
2019-03-10T12:38:58.376Z,11.20
2019-03-10T12:41:28.141Z,11.20
2019-03-10T12:43:57.908Z,11.30
2019-03-10T12:46:27.768Z,11.40
2019-03-10T12:48:57.595Z,11.40
2019-03-10T12:51:27.583Z,11.50
2019-03-10T12:53:57.528Z,11.60
2019-03-10T12:56:27.309Z,11.70
2019-03-10T12:58:57.039Z,11.70
2019-03-10T13:01:26.680Z,11.90
2019-03-10T13:03:59.227Z,12.20
2019-03-10T13:06:27.939Z,12.70
2019-03-10T13:08:57.650Z,13.00
2019-03-10T13:11:27.540Z,13.30
2019-03-10T13:13:57.348Z,13.60
2019-03-10T13:16:27.156Z,13.60
2019-03-10T13:18:56.810Z,13.60
2019-03-10T13:21:26.604Z,13.80
2019-03-10T13:23:56.197Z,13.80
2019-03-10T13:26:25.739Z,13.70
2019-03-10T13:28:55.342Z,13.80
2019-03-10T13:31:24.958Z,13.80
2019-03-10T13:33:54.860Z,13.70
2019-03-10T13:36:24.476Z,13.70
2019-03-10T13:38:54.010Z,13.70
2019-03-10T13:41:23.586Z,14.10
2019-03-10T13:43:53.224Z,14.20
2019-03-10T13:46:22.780Z,14.20
2019-03-10T13:48:52.544Z,14.20
2019-03-10T13:51:22.327Z,14.20
2019-03-10T13:53:52.059Z,14.20
2019-03-10T13:56:21.740Z,14.50
2019-03-10T13:58:51.352Z,14.70
2019-03-10T14:01:21.239Z,14.80
2019-03-10T14:03:50.762Z,15.00
2019-03-10T14:06:20.682Z,15.40
2019-03-10T14:08:50.447Z,15.50
2019-03-10T14:11:20.172Z,15.40
2019-03-10T14:13:49.967Z,15.30
2019-03-10T14:16:20.630Z,15.50
2019-03-10T14:18:50.327Z,15.50
2019-03-10T14:21:20.027Z,15.40
2019-03-10T14:23:49.697Z,15.20
2019-03-10T14:26:19.586Z,15.10
2019-03-10T14:28:49.262Z,15.00
2019-03-10T14:31:18.806Z,15.00
2019-03-10T14:33:48.825Z,14.90
2019-03-10T14:36:18.492Z,14.90
2019-03-10T14:38:48.229Z,14.80
2019-03-10T14:41:17.797Z,14.80
2019-03-10T14:43:47.548Z,14.80
2019-03-10T14:46:17.555Z,14.80
2019-03-10T14:48:47.190Z,14.70
2019-03-10T14:51:17.486Z,14.70
2019-03-10T14:53:47.316Z,14.60
2019-03-10T14:56:16.981Z,14.60
2019-03-10T14:58:46.616Z,14.50
2019-03-10T15:01:16.586Z,14.50
2019-03-10T15:03:46.496Z,14.40
2019-03-10T15:06:16.194Z,14.40
2019-03-10T15:08:46.506Z,14.30
2019-03-10T15:11:16.256Z,14.30
2019-03-10T15:13:46.118Z,14.40
2019-03-10T15:16:16.071Z,14.40
2019-03-10T15:18:46.072Z,14.50
2019-03-10T15:21:15.660Z,14.50
2019-03-10T15:23:45.233Z,14.50
2019-03-10T15:26:15.081Z,14.60
2019-03-10T15:28:44.652Z,14.60
2019-03-10T15:31:14.499Z,14.60
2019-03-10T15:33:44.309Z,14.60
2019-03-10T15:36:20.294Z,14.60
2019-03-10T15:38:45.182Z,14.70
2019-03-10T15:41:14.877Z,14.70
2019-03-10T15:43:44.631Z,14.60
2019-03-10T15:46:14.243Z,14.60
2019-03-10T15:48:44.156Z,14.60
2019-03-10T15:51:13.765Z,14.40
2019-03-10T15:53:43.398Z,14.40
2019-03-10T15:56:13.043Z,14.30
2019-03-10T15:58:42.862Z,14.20
2019-03-10T16:01:12.534Z,14.20
2019-03-10T16:03:42.177Z,14.20
2019-03-10T16:06:12.233Z,14.10
2019-03-10T16:08:41.854Z,14.00
2019-03-10T16:11:11.739Z,13.40
2019-03-10T16:13:41.645Z,12.80
2019-03-10T16:16:11.359Z,12.50
2019-03-10T16:18:41.037Z,12.10
2019-03-10T16:21:11.107Z,11.90
2019-03-10T16:23:41.013Z,11.70
2019-03-10T16:26:10.741Z,11.60
2019-03-10T16:28:40.604Z,11.50
2019-03-10T16:31:10.358Z,11.50
2019-03-10T16:33:40.129Z,11.40
2019-03-10T16:36:09.727Z,11.40
2019-03-10T16:38:39.453Z,11.40
2019-03-10T16:41:09.083Z,11.40
2019-03-10T16:43:38.739Z,11.40
2019-03-10T16:46:08.396Z,11.40
2019-03-10T16:48:38.144Z,11.40
2019-03-10T16:51:08.028Z,11.40
2019-03-10T16:53:37.931Z,11.40
2019-03-10T16:56:07.490Z,11.50
2019-03-10T16:58:37.380Z,11.40
2019-03-10T17:01:07.124Z,11.40
2019-03-10T17:03:36.784Z,11.50
2019-03-10T17:06:06.610Z,11.50
2019-03-10T17:08:36.645Z,11.40
2019-03-10T17:11:06.433Z,11.40
2019-03-10T17:13:36.565Z,11.40
2019-03-10T17:16:06.096Z,11.40
2019-03-10T17:18:36.090Z,11.40
2019-03-10T17:21:05.885Z,11.40
2019-03-10T17:23:35.822Z,11.40
2019-03-10T17:26:05.718Z,11.50
2019-03-10T17:28:35.380Z,11.50
2019-03-10T17:31:04.979Z,11.40
2019-03-10T17:33:34.822Z,11.20
2019-03-10T17:36:04.657Z,10.90
2019-03-10T17:38:34.554Z,10.90
2019-03-10T17:41:04.492Z,11.00
2019-03-10T17:43:34.350Z,11.00
2019-03-10T17:46:04.116Z,10.90
2019-03-10T17:48:34.005Z,10.80
2019-03-10T17:51:03.868Z,10.70
2019-03-10T17:53:33.761Z,10.70
2019-03-10T17:56:03.680Z,10.60
2019-03-10T17:58:34.194Z,10.60
2019-03-10T18:01:03.947Z,10.50
2019-03-10T18:03:33.828Z,10.50
2019-03-10T18:06:03.527Z,10.40
2019-03-10T18:08:33.420Z,10.40
2019-03-10T18:11:03.136Z,10.40
2019-03-10T18:13:32.788Z,10.40
2019-03-10T18:16:02.570Z,10.40
2019-03-10T18:18:32.450Z,10.30
2019-03-10T18:21:02.423Z,10.30
2019-03-10T18:23:32.547Z,10.30
2019-03-10T18:26:02.453Z,10.30
2019-03-10T18:28:32.448Z,10.30
2019-03-10T18:31:02.122Z,10.40
2019-03-10T18:33:32.107Z,10.50
2019-03-10T18:36:02.101Z,10.60
2019-03-10T18:38:32.071Z,10.60
2019-03-10T18:41:01.717Z,10.70
2019-03-10T18:43:31.455Z,10.80
2019-03-10T18:46:01.390Z,10.90
2019-03-10T18:48:31.390Z,10.90
2019-03-10T18:51:01.450Z,10.90
2019-03-10T18:53:31.200Z,10.90
2019-03-10T18:56:01.010Z,10.90
2019-03-10T18:58:30.946Z,10.90
2019-03-10T19:01:00.886Z,10.90
2019-03-10T19:03:30.777Z,10.80
2019-03-10T19:06:00.501Z,10.90
2019-03-10T19:08:30.359Z,10.90
2019-03-10T19:11:00.442Z,10.90
2019-03-10T19:13:30.311Z,10.80
2019-03-10T19:16:00.118Z,10.80
2019-03-10T19:18:30.041Z,10.80
2019-03-10T19:20:59.588Z,10.70
2019-03-10T19:23:29.409Z,10.70
2019-03-10T19:25:59.323Z,10.60
2019-03-10T19:28:29.337Z,10.60
2019-03-10T19:30:59.046Z,10.60
2019-03-10T19:33:28.871Z,10.60
2019-03-10T19:35:58.562Z,10.60
2019-03-10T19:38:28.486Z,10.60
2019-03-10T19:40:58.277Z,10.50
2019-03-10T19:43:28.332Z,10.50
2019-03-10T19:45:58.221Z,10.50
2019-03-10T19:48:28.240Z,10.30
2019-03-10T19:50:58.402Z,10.40
2019-03-10T19:53:28.418Z,10.40
2019-03-10T19:55:58.403Z,10.40
2019-03-10T19:58:28.427Z,10.30
2019-03-10T20:00:58.310Z,10.30
2019-03-10T20:03:28.373Z,10.30
2019-03-10T20:05:58.406Z,10.30
2019-03-10T20:08:28.412Z,10.40
2019-03-10T20:11:17.129Z,10.30
2019-03-10T20:13:47.159Z,10.20
2019-03-10T20:16:17.107Z,10.20
2019-03-10T20:18:47.262Z,10.10
2019-03-10T20:21:17.322Z,10.00
2019-03-10T20:23:47.176Z,10.10
2019-03-10T20:26:17.260Z,10.10
2019-03-10T20:28:47.360Z,10.10
2019-03-10T20:31:17.396Z,10.10
2019-03-10T20:33:47.557Z,10.10
2019-03-10T20:36:17.231Z,9.90
2019-03-10T20:38:47.155Z,9.90
2019-03-10T20:41:17.448Z,9.80
2019-03-10T20:43:47.338Z,9.80
2019-03-10T20:46:17.416Z,9.70
2019-03-10T20:48:47.389Z,9.70
2019-03-10T20:51:19.935Z,9.70
2019-03-10T20:53:49.903Z,9.60
2019-03-10T20:56:19.904Z,9.60
2019-03-10T20:58:49.661Z,9.60
2019-03-10T21:01:21.344Z,9.70
2019-03-10T21:03:51.468Z,9.70
2019-03-10T21:06:21.275Z,9.60
2019-03-10T21:08:51.165Z,9.60
2019-03-10T21:11:20.941Z,9.60
2019-03-10T21:13:50.744Z,9.60
2019-03-10T21:16:20.452Z,9.70
2019-03-10T21:18:50.499Z,9.70
2019-03-10T21:21:20.158Z,9.60
2019-03-10T21:23:49.812Z,9.60
2019-03-10T21:26:19.609Z,9.60
2019-03-10T21:28:49.284Z,9.60
2019-03-10T21:31:19.310Z,9.60
2019-03-10T21:33:49.342Z,9.70
2019-03-10T21:36:19.164Z,9.70
2019-03-10T21:38:48.885Z,9.70
2019-03-10T21:41:18.656Z,9.70
2019-03-10T21:43:48.358Z,9.60
2019-03-10T21:46:18.720Z,9.60
2019-03-10T21:48:48.449Z,9.60
2019-03-10T21:51:19.188Z,9.30
2019-03-10T21:53:49.062Z,9.00
2019-03-10T21:56:18.708Z,8.50
2019-03-10T21:58:48.353Z,8.20
2019-03-10T22:01:17.951Z,7.80
2019-03-10T22:03:47.632Z,7.40
2019-03-10T22:06:17.328Z,7.20
2019-03-10T22:08:47.044Z,7.00
2019-03-10T22:11:16.763Z,6.70
2019-03-10T22:13:47.079Z,6.60
2019-03-10T22:16:16.905Z,6.50
2019-03-10T22:18:46.497Z,6.40
2019-03-10T22:21:16.221Z,6.40
2019-03-10T22:23:46.121Z,6.40
2019-03-10T22:26:15.829Z,6.40
2019-03-10T22:28:45.569Z,6.50
2019-03-10T22:31:15.255Z,6.50
2019-03-10T22:33:45.037Z,6.50
2019-03-10T22:36:14.769Z,6.50
2019-03-10T22:38:44.427Z,6.50
2019-03-10T22:41:14.211Z,6.40
2019-03-10T22:43:43.801Z,6.30
2019-03-10T22:46:13.449Z,6.30
2019-03-10T22:48:43.125Z,6.30
2019-03-10T22:51:15.612Z,6.30
2019-03-10T22:53:45.296Z,6.30
2019-03-10T22:56:15.111Z,6.30
2019-03-10T22:58:44.777Z,6.30
2019-03-10T23:01:14.454Z,6.30
2019-03-10T23:03:44.072Z,6.30
2019-03-10T23:06:13.834Z,6.30
2019-03-10T23:08:43.550Z,6.40
2019-03-10T23:11:13.206Z,6.40
2019-03-10T23:13:42.841Z,6.40
2019-03-10T23:16:12.545Z,6.40
2019-03-10T23:18:42.221Z,6.40
2019-03-10T23:21:12.078Z,6.50
2019-03-10T23:23:41.737Z,6.40
2019-03-10T23:26:11.615Z,6.40
2019-03-10T23:28:41.340Z,6.40
2019-03-10T23:31:10.931Z,6.40
2019-03-10T23:33:40.602Z,6.30
2019-03-10T23:36:10.494Z,6.30
2019-03-10T23:38:40.002Z,6.20
2019-03-10T23:41:09.817Z,6.20
2019-03-10T23:43:39.493Z,6.20
2019-03-10T23:46:09.204Z,6.20
2019-03-10T23:48:38.900Z,6.20
2019-03-10T23:51:08.547Z,6.30
2019-03-10T23:53:38.267Z,6.30
2019-03-10T23:56:07.915Z,6.30
2019-03-10T23:58:37.511Z,6.30
